sensor_id;sensor_type;location;lat;lon;timestamp;P1;durP1;ratioP1;P2;durP2;ratioP2
25780;SDS011;13626;48.128;11.628;2023-02-08T00:01:17;19.85;;;7.60;;
25780;SDS011;13626;48.128;11.628;2023-02-08T00:03:45;18.45;;;8.57;;
25780;SDS011;13626;48.128;11.628;2023-02-08T00:06:12;19.33;;;8.13;;
25780;SDS011;13626;48.128;11.628;2023-02-08T00:08:39;19.42;;;8.15;;
25780;SDS011;13626;48.128;11.628;2023-02-08T00:11:07;18.35;;;7.75;;
25780;SDS011;13626;48.128;11.628;2023-02-08T00:13:38;18.88;;;7.90;;
25780;SDS011;13626;48.128;11.628;2023-02-08T00:16:07;18.58;;;8.23;;
25780;SDS011;13626;48.128;11.628;2023-02-08T00:18:35;20.25;;;8.10;;
25780;SDS011;13626;48.128;11.628;2023-02-08T00:21:05;18.00;;;7.97;;
25780;SDS011;13626;48.128;11.628;2023-02-08T00:23:33;21.58;;;8.68;;
25780;SDS011;13626;48.128;11.628;2023-02-08T00:26:00;19.25;;;7.57;;
25780;SDS011;13626;48.128;11.628;2023-02-08T00:28:27;18.98;;;8.32;;
25780;SDS011;13626;48.128;11.628;2023-02-08T00:30:54;21.17;;;8.38;;
25780;SDS011;13626;48.128;11.628;2023-02-08T00:33:22;21.23;;;7.85;;
25780;SDS011;13626;48.128;11.628;2023-02-08T00:35:49;17.75;;;7.85;;
25780;SDS011;13626;48.128;11.628;2023-02-08T00:38:16;21.27;;;8.57;;
25780;SDS011;13626;48.128;11.628;2023-02-08T00:40:43;16.55;;;7.70;;
25780;SDS011;13626;48.128;11.628;2023-02-08T00:43:10;21.02;;;8.13;;
25780;SDS011;13626;48.128;11.628;2023-02-08T00:45:38;18.52;;;8.07;;
25780;SDS011;13626;48.128;11.628;2023-02-08T00:48:05;19.58;;;7.65;;
25780;SDS011;13626;48.128;11.628;2023-02-08T00:50:32;19.98;;;8.50;;
25780;SDS011;13626;48.128;11.628;2023-02-08T00:52:59;21.25;;;8.13;;
25780;SDS011;13626;48.128;11.628;2023-02-08T00:55:26;16.90;;;8.25;;
25780;SDS011;13626;48.128;11.628;2023-02-08T00:57:53;20.15;;;8.07;;
25780;SDS011;13626;48.128;11.628;2023-02-08T01:00:21;16.83;;;7.97;;
25780;SDS011;13626;48.128;11.628;2023-02-08T01:02:48;19.88;;;7.78;;
25780;SDS011;13626;48.128;11.628;2023-02-08T01:05:15;17.83;;;7.68;;
25780;SDS011;13626;48.128;11.628;2023-02-08T01:07:42;18.17;;;8.13;;
25780;SDS011;13626;48.128;11.628;2023-02-08T01:10:09;16.85;;;8.15;;
25780;SDS011;13626;48.128;11.628;2023-02-08T01:12:38;17.85;;;7.63;;
25780;SDS011;13626;48.128;11.628;2023-02-08T01:15:05;18.52;;;7.68;;
25780;SDS011;13626;48.128;11.628;2023-02-08T01:17:32;19.73;;;8.13;;
25780;SDS011;13626;48.128;11.628;2023-02-08T01:19:59;18.33;;;7.82;;
25780;SDS011;13626;48.128;11.628;2023-02-08T01:22:27;18.63;;;7.80;;
25780;SDS011;13626;48.128;11.628;2023-02-08T01:24:55;19.75;;;7.32;;
25780;SDS011;13626;48.128;11.628;2023-02-08T01:27:22;20.95;;;8.05;;
25780;SDS011;13626;48.128;11.628;2023-02-08T01:29:49;20.10;;;8.45;;
25780;SDS011;13626;48.128;11.628;2023-02-08T01:32:16;18.75;;;8.00;;
25780;SDS011;13626;48.128;11.628;2023-02-08T01:34:43;17.10;;;7.80;;
25780;SDS011;13626;48.128;11.628;2023-02-08T01:37:11;18.02;;;8.55;;
25780;SDS011;13626;48.128;11.628;2023-02-08T01:39:38;22.17;;;8.73;;
25780;SDS011;13626;48.128;11.628;2023-02-08T01:42:05;21.10;;;8.15;;
25780;SDS011;13626;48.128;11.628;2023-02-08T01:47:18;19.33;;;7.88;;
25780;SDS011;13626;48.128;11.628;2023-02-08T01:49:45;18.55;;;8.23;;
25780;SDS011;13626;48.128;11.628;2023-02-08T01:52:13;18.85;;;7.90;;
25780;SDS011;13626;48.128;11.628;2023-02-08T01:54:48;21.73;;;8.32;;
25780;SDS011;13626;48.128;11.628;2023-02-08T01:57:16;17.43;;;7.03;;
25780;SDS011;13626;48.128;11.628;2023-02-08T01:59:51;20.20;;;7.88;;
25780;SDS011;13626;48.128;11.628;2023-02-08T02:02:20;19.73;;;8.20;;
25780;SDS011;13626;48.128;11.628;2023-02-08T02:04:47;19.30;;;8.73;;
25780;SDS011;13626;48.128;11.628;2023-02-08T02:07:16;17.30;;;7.70;;
25780;SDS011;13626;48.128;11.628;2023-02-08T02:09:45;23.15;;;9.00;;
25780;SDS011;13626;48.128;11.628;2023-02-08T02:12:13;19.08;;;8.63;;
25780;SDS011;13626;48.128;11.628;2023-02-08T02:14:40;22.75;;;8.70;;
25780;SDS011;13626;48.128;11.628;2023-02-08T02:17:09;20.20;;;7.88;;
25780;SDS011;13626;48.128;11.628;2023-02-08T02:27:34;21.80;;;9.20;;
25780;SDS011;13626;48.128;11.628;2023-02-08T02:33:18;19.40;;;8.85;;
25780;SDS011;13626;48.128;11.628;2023-02-08T02:35:29;22.23;;;8.93;;
25780;SDS011;13626;48.128;11.628;2023-02-08T02:38:12;21.63;;;8.83;;
25780;SDS011;13626;48.128;11.628;2023-02-08T02:40:45;22.85;;;9.77;;
25780;SDS011;13626;48.128;11.628;2023-02-08T02:51:28;21.73;;;9.15;;
25780;SDS011;13626;48.128;11.628;2023-02-08T02:54:00;21.67;;;9.20;;
25780;SDS011;13626;48.128;11.628;2023-02-08T02:56:39;18.35;;;8.70;;
25780;SDS011;13626;48.128;11.628;2023-02-08T02:59:08;21.77;;;8.52;;
25780;SDS011;13626;48.128;11.628;2023-02-08T03:01:37;25.10;;;9.13;;
25780;SDS011;13626;48.128;11.628;2023-02-08T03:09:50;24.77;;;9.88;;
25780;SDS011;13626;48.128;11.628;2023-02-08T03:12:27;23.58;;;9.50;;
25780;SDS011;13626;48.128;11.628;2023-02-08T03:15:10;19.65;;;9.32;;
25780;SDS011;13626;48.128;11.628;2023-02-08T03:17:58;26.55;;;9.52;;
25780;SDS011;13626;48.128;11.628;2023-02-08T03:20:34;22.25;;;8.88;;
25780;SDS011;13626;48.128;11.628;2023-02-08T03:28:10;21.73;;;9.55;;
25780;SDS011;13626;48.128;11.628;2023-02-08T03:30:48;22.42;;;8.75;;
25780;SDS011;13626;48.128;11.628;2023-02-08T03:33:21;21.05;;;8.60;;
25780;SDS011;13626;48.128;11.628;2023-02-08T03:35:55;22.90;;;9.20;;
25780;SDS011;13626;48.128;11.628;2023-02-08T03:38:43;18.48;;;8.18;;
25780;SDS011;13626;48.128;11.628;2023-02-08T03:41:13;22.80;;;9.40;;
25780;SDS011;13626;48.128;11.628;2023-02-08T03:43:42;19.92;;;8.48;;
25780;SDS011;13626;48.128;11.628;2023-02-08T03:46:20;21.55;;;10.18;;
25780;SDS011;13626;48.128;11.628;2023-02-08T03:48:50;24.25;;;9.52;;
25780;SDS011;13626;48.128;11.628;2023-02-08T03:51:20;24.98;;;9.98;;
25780;SDS011;13626;48.128;11.628;2023-02-08T03:53:47;24.98;;;9.10;;
25780;SDS011;13626;48.128;11.628;2023-02-08T03:56:19;22.58;;;9.50;;
25780;SDS011;13626;48.128;11.628;2023-02-08T03:58:50;21.10;;;8.90;;
25780;SDS011;13626;48.128;11.628;2023-02-08T04:01:42;22.25;;;9.63;;
25780;SDS011;13626;48.128;11.628;2023-02-08T04:04:07;21.30;;;9.65;;
25780;SDS011;13626;48.128;11.628;2023-02-08T04:06:35;23.65;;;9.68;;
25780;SDS011;13626;48.128;11.628;2023-02-08T04:09:02;26.48;;;9.63;;
25780;SDS011;13626;48.128;11.628;2023-02-08T04:11:29;24.15;;;10.27;;
25780;SDS011;13626;48.128;11.628;2023-02-08T04:13:56;24.65;;;10.55;;
25780;SDS011;13626;48.128;11.628;2023-02-08T04:16:23;20.83;;;9.52;;
25780;SDS011;13626;48.128;11.628;2023-02-08T04:18:50;21.77;;;9.75;;
25780;SDS011;13626;48.128;11.628;2023-02-08T04:21:18;21.60;;;10.23;;
25780;SDS011;13626;48.128;11.628;2023-02-08T04:23:45;21.42;;;10.40;;
25780;SDS011;13626;48.128;11.628;2023-02-08T04:26:12;23.58;;;9.65;;
25780;SDS011;13626;48.128;11.628;2023-02-08T04:28:40;25.00;;;10.02;;
25780;SDS011;13626;48.128;11.628;2023-02-08T04:31:07;19.90;;;9.65;;
25780;SDS011;13626;48.128;11.628;2023-02-08T04:33:34;23.92;;;10.15;;
25780;SDS011;13626;48.128;11.628;2023-02-08T04:36:01;25.70;;;10.15;;
25780;SDS011;13626;48.128;11.628;2023-02-08T04:38:29;24.52;;;9.30;;
25780;SDS011;13626;48.128;11.628;2023-02-08T04:40:56;24.00;;;9.50;;
25780;SDS011;13626;48.128;11.628;2023-02-08T04:43:23;23.95;;;9.90;;
25780;SDS011;13626;48.128;11.628;2023-02-08T04:45:50;24.25;;;10.20;;
25780;SDS011;13626;48.128;11.628;2023-02-08T04:48:19;23.48;;;9.35;;
25780;SDS011;13626;48.128;11.628;2023-02-08T04:50:46;22.58;;;9.95;;
25780;SDS011;13626;48.128;11.628;2023-02-08T04:53:13;22.08;;;10.40;;
25780;SDS011;13626;48.128;11.628;2023-02-08T04:55:40;30.33;;;11.02;;
25780;SDS011;13626;48.128;11.628;2023-02-08T04:58:07;24.20;;;10.30;;
25780;SDS011;13626;48.128;11.628;2023-02-08T05:00:35;22.23;;;9.82;;
25780;SDS011;13626;48.128;11.628;2023-02-08T05:03:02;19.90;;;9.88;;
25780;SDS011;13626;48.128;11.628;2023-02-08T05:05:30;27.42;;;10.90;;
25780;SDS011;13626;48.128;11.628;2023-02-08T05:07:58;24.52;;;10.10;;
25780;SDS011;13626;48.128;11.628;2023-02-08T05:10:25;26.02;;;10.27;;
25780;SDS011;13626;48.128;11.628;2023-02-08T05:12:53;33.08;;;10.98;;
25780;SDS011;13626;48.128;11.628;2023-02-08T05:15:20;25.42;;;10.60;;
25780;SDS011;13626;48.128;11.628;2023-02-08T05:17:47;25.90;;;10.50;;
25780;SDS011;13626;48.128;11.628;2023-02-08T05:20:15;27.00;;;10.43;;
25780;SDS011;13626;48.128;11.628;2023-02-08T05:22:42;25.42;;;10.23;;
25780;SDS011;13626;48.128;11.628;2023-02-08T05:25:10;23.13;;;10.48;;
25780;SDS011;13626;48.128;11.628;2023-02-08T05:27:37;28.67;;;11.07;;
25780;SDS011;13626;48.128;11.628;2023-02-08T05:30:04;25.48;;;10.63;;
25780;SDS011;13626;48.128;11.628;2023-02-08T05:32:31;26.08;;;10.85;;
25780;SDS011;13626;48.128;11.628;2023-02-08T05:34:59;26.25;;;11.15;;
25780;SDS011;13626;48.128;11.628;2023-02-08T05:37:26;28.25;;;11.23;;
25780;SDS011;13626;48.128;11.628;2023-02-08T05:39:53;25.63;;;10.98;;
25780;SDS011;13626;48.128;11.628;2023-02-08T05:42:20;26.42;;;11.07;;
25780;SDS011;13626;48.128;11.628;2023-02-08T05:44:47;27.80;;;11.05;;
25780;SDS011;13626;48.128;11.628;2023-02-08T05:47:14;26.38;;;11.38;;
25780;SDS011;13626;48.128;11.628;2023-02-08T05:49:42;26.63;;;10.73;;
25780;SDS011;13626;48.128;11.628;2023-02-08T05:52:09;28.48;;;11.40;;
25780;SDS011;13626;48.128;11.628;2023-02-08T05:54:36;25.83;;;11.18;;
25780;SDS011;13626;48.128;11.628;2023-02-08T05:57:04;26.90;;;11.25;;
25780;SDS011;13626;48.128;11.628;2023-02-08T05:59:31;32.40;;;11.30;;
25780;SDS011;13626;48.128;11.628;2023-02-08T06:01:58;25.75;;;10.85;;
25780;SDS011;13626;48.128;11.628;2023-02-08T06:04:26;26.30;;;10.88;;
25780;SDS011;13626;48.128;11.628;2023-02-08T06:06:53;25.75;;;10.90;;
25780;SDS011;13626;48.128;11.628;2023-02-08T06:09:20;30.27;;;11.50;;
25780;SDS011;13626;48.128;11.628;2023-02-08T06:11:47;29.33;;;10.98;;
25780;SDS011;13626;48.128;11.628;2023-02-08T06:14:15;31.45;;;12.02;;
25780;SDS011;13626;48.128;11.628;2023-02-08T06:16:42;31.73;;;12.40;;
25780;SDS011;13626;48.128;11.628;2023-02-08T06:19:09;28.17;;;11.30;;
25780;SDS011;13626;48.128;11.628;2023-02-08T06:21:36;24.67;;;11.10;;
25780;SDS011;13626;48.128;11.628;2023-02-08T06:24:04;39.10;;;13.57;;
25780;SDS011;13626;48.128;11.628;2023-02-08T06:26:32;33.85;;;13.30;;
25780;SDS011;13626;48.128;11.628;2023-02-08T06:28:59;34.67;;;14.60;;
25780;SDS011;13626;48.128;11.628;2023-02-08T06:31:26;31.50;;;13.95;;
25780;SDS011;13626;48.128;11.628;2023-02-08T06:33:53;27.90;;;11.85;;
25780;SDS011;13626;48.128;11.628;2023-02-08T06:36:21;33.00;;;13.30;;
25780;SDS011;13626;48.128;11.628;2023-02-08T06:38:48;29.70;;;12.73;;
25780;SDS011;13626;48.128;11.628;2023-02-08T06:41:16;28.25;;;13.25;;
25780;SDS011;13626;48.128;11.628;2023-02-08T06:43:43;33.28;;;13.30;;
25780;SDS011;13626;48.128;11.628;2023-02-08T06:46:10;41.92;;;13.82;;
25780;SDS011;13626;48.128;11.628;2023-02-08T06:48:38;26.30;;;11.02;;
25780;SDS011;13626;48.128;11.628;2023-02-08T06:51:05;27.73;;;11.75;;
25780;SDS011;13626;48.128;11.628;2023-02-08T06:53:32;33.72;;;12.48;;
25780;SDS011;13626;48.128;11.628;2023-02-08T06:55:59;31.02;;;12.80;;
25780;SDS011;13626;48.128;11.628;2023-02-08T06:58:27;29.33;;;12.95;;
25780;SDS011;13626;48.128;11.628;2023-02-08T07:00:54;25.98;;;11.65;;
25780;SDS011;13626;48.128;11.628;2023-02-08T07:03:21;25.90;;;11.95;;
25780;SDS011;13626;48.128;11.628;2023-02-08T07:05:48;31.17;;;12.52;;
25780;SDS011;13626;48.128;11.628;2023-02-08T07:08:30;26.80;;;12.10;;
25780;SDS011;13626;48.128;11.628;2023-02-08T07:10:57;29.20;;;12.18;;
25780;SDS011;13626;48.128;11.628;2023-02-08T07:13:25;28.33;;;12.65;;
25780;SDS011;13626;48.128;11.628;2023-02-08T07:15:52;29.58;;;12.40;;
25780;SDS011;13626;48.128;11.628;2023-02-08T07:18:19;28.92;;;12.00;;
25780;SDS011;13626;48.128;11.628;2023-02-08T07:20:47;29.83;;;12.48;;
25780;SDS011;13626;48.128;11.628;2023-02-08T07:23:14;32.33;;;12.65;;
25780;SDS011;13626;48.128;11.628;2023-02-08T07:25:41;29.70;;;12.23;;
25780;SDS011;13626;48.128;11.628;2023-02-08T07:28:08;32.15;;;11.85;;
25780;SDS011;13626;48.128;11.628;2023-02-08T07:30:36;26.35;;;12.23;;
25780;SDS011;13626;48.128;11.628;2023-02-08T07:33:03;30.63;;;11.57;;
25780;SDS011;13626;48.128;11.628;2023-02-08T07:35:30;28.38;;;11.95;;
25780;SDS011;13626;48.128;11.628;2023-02-08T07:37:57;29.27;;;11.70;;
25780;SDS011;13626;48.128;11.628;2023-02-08T07:40:24;29.58;;;12.25;;
25780;SDS011;13626;48.128;11.628;2023-02-08T07:42:52;25.88;;;12.23;;
25780;SDS011;13626;48.128;11.628;2023-02-08T07:45:19;32.10;;;13.23;;
25780;SDS011;13626;48.128;11.628;2023-02-08T07:47:46;25.58;;;11.57;;
25780;SDS011;13626;48.128;11.628;2023-02-08T07:50:16;35.33;;;12.93;;
25780;SDS011;13626;48.128;11.628;2023-02-08T07:52:43;28.60;;;12.75;;
25780;SDS011;13626;48.128;11.628;2023-02-08T07:55:12;33.58;;;11.68;;
25780;SDS011;13626;48.128;11.628;2023-02-08T07:57:44;27.08;;;12.45;;
25780;SDS011;13626;48.128;11.628;2023-02-08T08:00:12;27.58;;;12.50;;
25780;SDS011;13626;48.128;11.628;2023-02-08T08:02:40;25.52;;;11.93;;
25780;SDS011;13626;48.128;11.628;2023-02-08T08:05:07;25.63;;;12.23;;
25780;SDS011;13626;48.128;11.628;2023-02-08T08:07:34;28.25;;;12.82;;
25780;SDS011;13626;48.128;11.628;2023-02-08T08:10:02;25.15;;;11.73;;
25780;SDS011;13626;48.128;11.628;2023-02-08T08:12:30;25.30;;;12.32;;
25780;SDS011;13626;48.128;11.628;2023-02-08T08:14:57;27.80;;;12.35;;
25780;SDS011;13626;48.128;11.628;2023-02-08T08:17:24;26.02;;;13.27;;
25780;SDS011;13626;48.128;11.628;2023-02-08T08:19:55;28.88;;;13.05;;
25780;SDS011;13626;48.128;11.628;2023-02-08T08:22:22;24.70;;;12.80;;
25780;SDS011;13626;48.128;11.628;2023-02-08T08:24:49;27.08;;;12.00;;
25780;SDS011;13626;48.128;11.628;2023-02-08T08:27:16;26.08;;;11.98;;
25780;SDS011;13626;48.128;11.628;2023-02-08T08:29:43;28.27;;;12.38;;
25780;SDS011;13626;48.128;11.628;2023-02-08T08:32:10;26.73;;;13.32;;
25780;SDS011;13626;48.128;11.628;2023-02-08T08:34:38;25.42;;;12.75;;
25780;SDS011;13626;48.128;11.628;2023-02-08T08:37:05;22.88;;;12.57;;
25780;SDS011;13626;48.128;11.628;2023-02-08T08:39:32;21.92;;;11.15;;
25780;SDS011;13626;48.128;11.628;2023-02-08T08:41:59;23.02;;;12.20;;
25780;SDS011;13626;48.128;11.628;2023-02-08T08:44:29;23.50;;;12.18;;
25780;SDS011;13626;48.128;11.628;2023-02-08T08:46:56;23.45;;;12.55;;
25780;SDS011;13626;48.128;11.628;2023-02-08T08:49:25;24.48;;;12.30;;
25780;SDS011;13626;48.128;11.628;2023-02-08T08:51:52;23.30;;;11.80;;
25780;SDS011;13626;48.128;11.628;2023-02-08T08:54:20;27.33;;;12.10;;
25780;SDS011;13626;48.128;11.628;2023-02-08T08:56:47;24.30;;;12.02;;
25780;SDS011;13626;48.128;11.628;2023-02-08T08:59:14;24.67;;;11.20;;
25780;SDS011;13626;48.128;11.628;2023-02-08T09:01:41;23.85;;;11.98;;
25780;SDS011;13626;48.128;11.628;2023-02-08T09:04:09;24.00;;;11.27;;
25780;SDS011;13626;48.128;11.628;2023-02-08T09:06:36;27.15;;;11.77;;
25780;SDS011;13626;48.128;11.628;2023-02-08T09:09:04;48.65;;;12.32;;
25780;SDS011;13626;48.128;11.628;2023-02-08T09:11:31;27.13;;;11.57;;
25780;SDS011;13626;48.128;11.628;2023-02-08T09:14:01;25.58;;;11.77;;
25780;SDS011;13626;48.128;11.628;2023-02-08T09:16:30;22.65;;;11.60;;
25780;SDS011;13626;48.128;11.628;2023-02-08T09:19:01;23.50;;;12.15;;
25780;SDS011;13626;48.128;11.628;2023-02-08T09:21:28;21.08;;;11.70;;
25780;SDS011;13626;48.128;11.628;2023-02-08T09:23:55;21.08;;;12.18;;
25780;SDS011;13626;48.128;11.628;2023-02-08T09:26:23;23.38;;;12.32;;
25780;SDS011;13626;48.128;11.628;2023-02-08T09:28:51;22.98;;;12.90;;
25780;SDS011;13626;48.128;11.628;2023-02-08T09:33:46;22.83;;;13.75;;
25780;SDS011;13626;48.128;11.628;2023-02-08T09:36:13;22.70;;;13.13;;
25780;SDS011;13626;48.128;11.628;2023-02-08T09:38:41;22.13;;;12.95;;
25780;SDS011;13626;48.128;11.628;2023-02-08T09:43:49;23.30;;;13.60;;
25780;SDS011;13626;48.128;11.628;2023-02-08T09:46:21;25.10;;;12.57;;
25780;SDS011;13626;48.128;11.628;2023-02-08T09:48:49;24.02;;;13.95;;
25780;SDS011;13626;48.128;11.628;2023-02-08T09:51:31;21.42;;;12.88;;
25780;SDS011;13626;48.128;11.628;2023-02-08T09:56:45;20.63;;;12.48;;
25780;SDS011;13626;48.128;11.628;2023-02-08T10:01:47;22.33;;;13.07;;
25780;SDS011;13626;48.128;11.628;2023-02-08T10:07:01;25.20;;;13.40;;
25780;SDS011;13626;48.128;11.628;2023-02-08T10:09:28;30.00;;;13.43;;
25780;SDS011;13626;48.128;11.628;2023-02-08T10:17:14;22.38;;;13.20;;
25780;SDS011;13626;48.128;11.628;2023-02-08T10:22:18;23.35;;;13.45;;
25780;SDS011;13626;48.128;11.628;2023-02-08T10:27:16;23.90;;;12.75;;
25780;SDS011;13626;48.128;11.628;2023-02-08T10:32:19;19.83;;;12.27;;
25780;SDS011;13626;48.128;11.628;2023-02-08T10:34:51;21.40;;;12.52;;
25780;SDS011;13626;48.128;11.628;2023-02-08T10:37:20;20.15;;;12.65;;
25780;SDS011;13626;48.128;11.628;2023-02-08T10:39:50;25.80;;;12.50;;
25780;SDS011;13626;48.128;11.628;2023-02-08T10:42:19;24.75;;;13.50;;
25780;SDS011;13626;48.128;11.628;2023-02-08T10:49:56;22.63;;;12.00;;
25780;SDS011;13626;48.128;11.628;2023-02-08T10:52:25;22.98;;;13.30;;
25780;SDS011;13626;48.128;11.628;2023-02-08T10:54:53;22.67;;;12.25;;
25780;SDS011;13626;48.128;11.628;2023-02-08T10:57:22;21.38;;;12.10;;
25780;SDS011;13626;48.128;11.628;2023-02-08T11:00:01;24.92;;;12.68;;
25780;SDS011;13626;48.128;11.628;2023-02-08T11:02:31;27.42;;;13.15;;
25780;SDS011;13626;48.128;11.628;2023-02-08T11:05:03;22.67;;;12.73;;
25780;SDS011;13626;48.128;11.628;2023-02-08T11:07:31;22.73;;;12.45;;
25780;SDS011;13626;48.128;11.628;2023-02-08T11:15:36;23.95;;;12.55;;
25780;SDS011;13626;48.128;11.628;2023-02-08T11:18:05;25.02;;;11.68;;
25780;SDS011;13626;48.128;11.628;2023-02-08T11:20:34;22.85;;;10.88;;
25780;SDS011;13626;48.128;11.628;2023-02-08T11:23:03;27.45;;;11.65;;
25780;SDS011;13626;48.128;11.628;2023-02-08T11:25:35;23.33;;;12.07;;
25780;SDS011;13626;48.128;11.628;2023-02-08T11:28:03;23.42;;;12.57;;
25780;SDS011;13626;48.128;11.628;2023-02-08T11:30:31;24.90;;;12.18;;
25780;SDS011;13626;48.128;11.628;2023-02-08T11:33:12;28.77;;;13.60;;
25780;SDS011;13626;48.128;11.628;2023-02-08T11:35:40;25.00;;;12.55;;
25780;SDS011;13626;48.128;11.628;2023-02-08T11:38:14;32.22;;;13.73;;
25780;SDS011;13626;48.128;11.628;2023-02-08T11:40:44;26.63;;;12.95;;
25780;SDS011;13626;48.128;11.628;2023-02-08T11:43:19;28.33;;;12.82;;
25780;SDS011;13626;48.128;11.628;2023-02-08T11:45:47;30.77;;;13.88;;
25780;SDS011;13626;48.128;11.628;2023-02-08T11:48:19;29.77;;;13.45;;
25780;SDS011;13626;48.128;11.628;2023-02-08T11:50:51;26.70;;;13.52;;
25780;SDS011;13626;48.128;11.628;2023-02-08T11:53:20;28.25;;;14.07;;
25780;SDS011;13626;48.128;11.628;2023-02-08T11:56:08;26.60;;;14.05;;
25780;SDS011;13626;48.128;11.628;2023-02-08T11:58:40;30.52;;;14.77;;
25780;SDS011;13626;48.128;11.628;2023-02-08T12:01:19;30.30;;;15.10;;
25780;SDS011;13626;48.128;11.628;2023-02-08T12:03:47;26.08;;;13.88;;
25780;SDS011;13626;48.128;11.628;2023-02-08T12:21:44;29.27;;;14.70;;
25780;SDS011;13626;48.128;11.628;2023-02-08T12:29:50;28.33;;;13.77;;
25780;SDS011;13626;48.128;11.628;2023-02-08T12:35:00;33.55;;;14.20;;
25780;SDS011;13626;48.128;11.628;2023-02-08T12:37:42;28.70;;;14.20;;
25780;SDS011;13626;48.128;11.628;2023-02-08T12:40:33;30.42;;;14.73;;
25780;SDS011;13626;48.128;11.628;2023-02-08T12:53:44;31.60;;;15.88;;
25780;SDS011;13626;48.128;11.628;2023-02-08T12:56:14;32.25;;;15.80;;
25780;SDS011;13626;48.128;11.628;2023-02-08T12:58:43;32.65;;;16.23;;
25780;SDS011;13626;48.128;11.628;2023-02-08T13:03:50;32.22;;;15.30;;
25780;SDS011;13626;48.128;11.628;2023-02-08T13:06:20;25.35;;;14.05;;
25780;SDS011;13626;48.128;11.628;2023-02-08T13:08:53;28.75;;;15.13;;
25780;SDS011;13626;48.128;11.628;2023-02-08T13:11:28;28.98;;;14.90;;
25780;SDS011;13626;48.128;11.628;2023-02-08T13:13:57;29.17;;;13.88;;
25780;SDS011;13626;48.128;11.628;2023-02-08T13:16:29;32.42;;;14.93;;
25780;SDS011;13626;48.128;11.628;2023-02-08T13:19:22;29.98;;;15.20;;
25780;SDS011;13626;48.128;11.628;2023-02-08T13:21:47;30.48;;;14.73;;
25780;SDS011;13626;48.128;11.628;2023-02-08T13:26:57;25.83;;;13.68;;
25780;SDS011;13626;48.128;11.628;2023-02-08T13:29:24;27.55;;;13.68;;
25780;SDS011;13626;48.128;11.628;2023-02-08T13:31:58;28.10;;;14.10;;
25780;SDS011;13626;48.128;11.628;2023-02-08T13:34:44;28.83;;;12.68;;
25780;SDS011;13626;48.128;11.628;2023-02-08T13:37:25;28.25;;;13.75;;
25780;SDS011;13626;48.128;11.628;2023-02-08T13:40:07;28.88;;;13.70;;
25780;SDS011;13626;48.128;11.628;2023-02-08T13:42:36;27.85;;;12.15;;
25780;SDS011;13626;48.128;11.628;2023-02-08T13:45:05;24.85;;;12.68;;
25780;SDS011;13626;48.128;11.628;2023-02-08T13:47:37;24.25;;;11.85;;
25780;SDS011;13626;48.128;11.628;2023-02-08T13:52:54;24.88;;;12.30;;
25780;SDS011;13626;48.128;11.628;2023-02-08T13:58:07;26.13;;;12.82;;
25780;SDS011;13626;48.128;11.628;2023-02-08T14:03:25;25.50;;;11.38;;
25780;SDS011;13626;48.128;11.628;2023-02-08T14:05:57;28.52;;;11.13;;
25780;SDS011;13626;48.128;11.628;2023-02-08T14:08:30;21.33;;;10.85;;
25780;SDS011;13626;48.128;11.628;2023-02-08T14:13:33;22.67;;;11.48;;
25780;SDS011;13626;48.128;11.628;2023-02-08T14:18:50;28.00;;;12.13;;
25780;SDS011;13626;48.128;11.628;2023-02-08T14:24:27;24.52;;;11.55;;
25780;SDS011;13626;48.128;11.628;2023-02-08T14:29:34;21.98;;;11.13;;
25780;SDS011;13626;48.128;11.628;2023-02-08T14:32:02;23.73;;;11.20;;
25780;SDS011;13626;48.128;11.628;2023-02-08T14:34:31;19.80;;;10.55;;
25780;SDS011;13626;48.128;11.628;2023-02-08T14:37:03;22.38;;;10.55;;
25780;SDS011;13626;48.128;11.628;2023-02-08T14:39:31;23.65;;;10.48;;
25780;SDS011;13626;48.128;11.628;2023-02-08T14:47:10;19.67;;;10.38;;
25780;SDS011;13626;48.128;11.628;2023-02-08T14:49:40;21.05;;;10.20;;
25780;SDS011;13626;48.128;11.628;2023-02-08T14:52:12;22.58;;;10.23;;
25780;SDS011;13626;48.128;11.628;2023-02-08T14:55:04;18.52;;;9.43;;
25780;SDS011;13626;48.128;11.628;2023-02-08T14:57:29;22.60;;;10.32;;
25780;SDS011;13626;48.128;11.628;2023-02-08T14:59:58;21.42;;;9.95;;
25780;SDS011;13626;48.128;11.628;2023-02-08T15:02:25;20.83;;;10.00;;
25780;SDS011;13626;48.128;11.628;2023-02-08T15:04:57;17.25;;;9.10;;
25780;SDS011;13626;48.128;11.628;2023-02-08T15:10:00;21.30;;;10.27;;
25780;SDS011;13626;48.128;11.628;2023-02-08T15:12:29;21.70;;;9.82;;
25780;SDS011;13626;48.128;11.628;2023-02-08T15:14:59;22.30;;;9.98;;
25780;SDS011;13626;48.128;11.628;2023-02-08T15:19:54;20.05;;;9.10;;
25780;SDS011;13626;48.128;11.628;2023-02-08T15:24:52;24.58;;;10.50;;
25780;SDS011;13626;48.128;11.628;2023-02-08T15:27:21;21.02;;;10.32;;
25780;SDS011;13626;48.128;11.628;2023-02-08T15:29:48;20.77;;;10.00;;
25780;SDS011;13626;48.128;11.628;2023-02-08T15:32:17;23.83;;;10.27;;
25780;SDS011;13626;48.128;11.628;2023-02-08T15:34:45;20.65;;;9.43;;
25780;SDS011;13626;48.128;11.628;2023-02-08T15:37:14;22.55;;;10.98;;
25780;SDS011;13626;48.128;11.628;2023-02-08T15:39:43;20.50;;;10.57;;
25780;SDS011;13626;48.128;11.628;2023-02-08T15:42:18;21.23;;;10.02;;
25780;SDS011;13626;48.128;11.628;2023-02-08T15:44:46;20.35;;;9.75;;
25780;SDS011;13626;48.128;11.628;2023-02-08T15:50:16;20.02;;;9.80;;
25780;SDS011;13626;48.128;11.628;2023-02-08T15:52:43;22.20;;;10.60;;
25780;SDS011;13626;48.128;11.628;2023-02-08T15:55:14;23.23;;;9.98;;
25780;SDS011;13626;48.128;11.628;2023-02-08T16:02:40;21.33;;;9.38;;
25780;SDS011;13626;48.128;11.628;2023-02-08T16:05:17;19.27;;;9.43;;
25780;SDS011;13626;48.128;11.628;2023-02-08T16:07:45;22.20;;;10.18;;
25780;SDS011;13626;48.128;11.628;2023-02-08T16:10:30;25.73;;;10.35;;
25780;SDS011;13626;48.128;11.628;2023-02-08T16:13:00;19.35;;;9.90;;
25780;SDS011;13626;48.128;11.628;2023-02-08T16:15:42;21.90;;;10.07;;
25780;SDS011;13626;48.128;11.628;2023-02-08T16:18:30;23.48;;;10.25;;
25780;SDS011;13626;48.128;11.628;2023-02-08T16:20:58;19.10;;;9.07;;
25780;SDS011;13626;48.128;11.628;2023-02-08T16:23:28;22.33;;;9.75;;
25780;SDS011;13626;48.128;11.628;2023-02-08T16:25:55;24.88;;;10.07;;
25780;SDS011;13626;48.128;11.628;2023-02-08T16:30:51;20.75;;;10.30;;
25780;SDS011;13626;48.128;11.628;2023-02-08T16:33:18;20.90;;;9.85;;
25780;SDS011;13626;48.128;11.628;2023-02-08T16:35:46;24.65;;;9.60;;
25780;SDS011;13626;48.128;11.628;2023-02-08T16:38:16;24.05;;;10.07;;
25780;SDS011;13626;48.128;11.628;2023-02-08T16:40:51;27.00;;;10.63;;
25780;SDS011;13626;48.128;11.628;2023-02-08T16:48:39;22.15;;;9.27;;
25780;SDS011;13626;48.128;11.628;2023-02-08T16:51:26;25.88;;;10.82;;
25780;SDS011;13626;48.128;11.628;2023-02-08T16:53:54;22.25;;;10.35;;
25780;SDS011;13626;48.128;11.628;2023-02-08T16:56:22;22.75;;;9.50;;
25780;SDS011;13626;48.128;11.628;2023-02-08T16:58:50;24.35;;;10.23;;
25780;SDS011;13626;48.128;11.628;2023-02-08T17:01:17;23.98;;;9.55;;
25780;SDS011;13626;48.128;11.628;2023-02-08T17:03:45;23.85;;;9.07;;